Lincoln, Virginia
Current Conditions -  °F | °C
As of 2:15 PM on Friday 24 Oct 2014 (Local Time) from KJYO Reporting Station
Clear Clear  
Wind Chill: 66°   Ceiling: Unl
Heat Index: 66°   Visibility: 10mi
Dew Point: 41°   Wind: 14mph
Humidity: 40%   Direction: 360°N
Pressure: 29.94"   Gusts: 21mph
Location:  39.12°N, 77.7°W
Report Text: KJYO 241815Z AUTO 36012G18KT 10SM CLR 19/05 A2994 RMK AO2
Loading
Personal Weather Stations






























Interactive Weather Map
Tropical Storm Tracking
New forecast layout! Learn more

10-Day Weather Forecast

Advertisements
Track Severe Weather on mobile